createdAt,value
2022-10-19T00:01:40.789Z,12.98
2022-10-19T00:04:11.030Z,12.96
2022-10-19T00:06:40.343Z,12.91
2022-10-19T00:09:11.329Z,12.87
2022-10-19T00:11:42.673Z,12.83
2022-10-19T00:14:15.771Z,12.80
2022-10-19T00:16:46.447Z,12.75
2022-10-19T00:19:24.378Z,12.72
2022-10-19T00:21:53.072Z,12.68
2022-10-19T00:24:22.094Z,12.61
2022-10-19T00:26:50.688Z,12.62
2022-10-19T00:29:20.755Z,12.66
2022-10-19T00:31:51.134Z,12.65
2022-10-19T00:34:21.357Z,12.60
2022-10-19T00:36:50.187Z,12.55
2022-10-19T00:39:19.777Z,12.54
2022-10-19T00:41:49.088Z,12.48
2022-10-19T00:44:55.160Z,12.47
2022-10-19T00:47:25.958Z,12.39
2022-10-19T00:49:56.959Z,12.35
2022-10-19T00:52:28.160Z,12.29
2022-10-19T00:54:59.771Z,12.28
2022-10-19T00:57:31.726Z,12.31
2022-10-19T01:00:04.446Z,12.34
2022-10-19T01:02:33.636Z,12.37
2022-10-19T01:05:05.407Z,12.36
2022-10-19T01:07:34.711Z,12.35
2022-10-19T01:10:04.150Z,12.35
2022-10-19T01:12:54.347Z,12.34
2022-10-19T01:15:33.233Z,12.30
2022-10-19T01:18:08.833Z,12.26
2022-10-19T01:21:10.115Z,12.22
2022-10-19T01:23:57.201Z,12.17
2022-10-19T01:26:44.546Z,12.12
2022-10-19T01:29:24.060Z,12.06
2022-10-19T01:32:01.358Z,12.04
2022-10-19T01:34:35.720Z,11.97
2022-10-19T01:37:13.877Z,11.93
2022-10-19T01:39:51.405Z,11.90
2022-10-19T01:42:27.774Z,11.85
2022-10-19T01:45:03.689Z,11.78
2022-10-19T01:47:37.956Z,11.76
2022-10-19T01:50:11.622Z,11.72
2022-10-19T01:52:42.491Z,11.66
2022-10-19T01:55:15.388Z,11.63
2022-10-19T01:57:49.531Z,11.56
2022-10-19T02:00:18.920Z,11.51
2022-10-19T02:02:51.317Z,11.47
2022-10-19T02:05:22.489Z,11.40
2022-10-19T02:08:01.361Z,11.43
2022-10-19T02:10:32.460Z,11.42
2022-10-19T02:13:04.494Z,11.39
2022-10-19T02:15:37.016Z,11.37
2022-10-19T02:18:08.864Z,11.33
2022-10-19T02:20:38.263Z,11.29
2022-10-19T02:23:07.730Z,11.27
2022-10-19T02:25:36.611Z,11.21
2022-10-19T02:28:06.258Z,11.16
2022-10-19T02:30:35.164Z,11.12
2022-10-19T02:33:03.831Z,11.10
2022-10-19T02:35:34.476Z,11.04
2022-10-19T02:38:04.721Z,10.99
2022-10-19T02:40:38.238Z,10.95
2022-10-19T02:43:11.427Z,10.91
2022-10-19T02:45:46.185Z,10.85
2022-10-19T02:48:21.430Z,10.80
2022-10-19T02:50:53.300Z,10.76
2022-10-19T02:53:22.181Z,10.69
2022-10-19T02:55:52.182Z,10.64
2022-10-19T02:58:22.175Z,10.60
2022-10-19T03:00:50.772Z,10.59
2022-10-19T03:03:19.456Z,10.56
2022-10-19T03:05:48.351Z,10.52
2022-10-19T03:08:18.218Z,10.53
2022-10-19T03:10:47.140Z,10.56
2022-10-19T03:13:15.540Z,10.59
2022-10-19T03:15:44.120Z,10.60
2022-10-19T03:18:12.452Z,10.65
2022-10-19T03:20:40.963Z,10.74
2022-10-19T03:23:11.082Z,10.79
2022-10-19T03:25:41.196Z,10.84
2022-10-19T03:28:10.003Z,10.88
2022-10-19T03:30:38.386Z,10.90
2022-10-19T03:33:06.884Z,10.95
2022-10-19T03:35:35.976Z,10.98
2022-10-19T03:38:04.754Z,11.01
2022-10-19T03:40:33.631Z,11.02
2022-10-19T03:43:03.402Z,11.05
2022-10-19T03:45:31.969Z,11.07
2022-10-19T03:48:00.413Z,11.07
2022-10-19T03:50:28.938Z,11.05
2022-10-19T03:52:57.494Z,11.10
2022-10-19T03:55:26.213Z,11.12
2022-10-19T03:57:54.709Z,11.14
2022-10-19T04:00:25.336Z,11.17
2022-10-19T04:02:53.885Z,11.17
2022-10-19T04:05:22.521Z,11.17
2022-10-19T04:07:51.034Z,11.16
2022-10-19T04:10:19.609Z,11.13
2022-10-19T04:12:53.641Z,11.10
2022-10-19T04:15:24.446Z,11.06
2022-10-19T04:17:53.312Z,11.01
2022-10-19T04:20:22.310Z,10.98
2022-10-19T04:22:53.924Z,10.95
2022-10-19T04:25:22.573Z,10.90
2022-10-19T04:27:51.218Z,10.86
2022-10-19T04:30:19.966Z,10.84
2022-10-19T04:32:50.060Z,10.81
2022-10-19T04:35:19.165Z,10.82
2022-10-19T04:37:47.530Z,10.83
2022-10-19T04:40:16.529Z,10.84
2022-10-19T04:42:44.819Z,10.85
2022-10-19T04:45:13.893Z,10.85
2022-10-19T04:47:42.465Z,10.86
2022-10-19T04:50:13.186Z,10.87
2022-10-19T04:52:46.708Z,10.88
2022-10-19T04:55:16.352Z,10.89
2022-10-19T04:57:45.132Z,10.89
2022-10-19T05:00:15.863Z,10.85
2022-10-19T05:02:46.170Z,10.84
2022-10-19T05:05:16.382Z,10.81
2022-10-19T05:07:45.179Z,10.81
2022-10-19T05:10:13.826Z,10.82
2022-10-19T05:12:42.442Z,10.78
2022-10-19T05:15:12.115Z,10.78
2022-10-19T05:17:40.742Z,10.75
2022-10-19T05:20:11.414Z,10.73
2022-10-19T05:22:42.105Z,10.77
2022-10-19T05:25:10.914Z,10.83
2022-10-19T05:27:39.858Z,10.88
2022-10-19T05:30:10.186Z,10.91
2022-10-19T05:32:38.578Z,10.92
2022-10-19T05:35:07.619Z,10.94
2022-10-19T05:37:36.500Z,10.96
2022-10-19T05:40:08.760Z,10.97
2022-10-19T05:42:37.735Z,11.00
2022-10-19T05:45:07.119Z,11.02
2022-10-19T05:47:36.733Z,11.08
2022-10-19T05:50:06.721Z,11.12
2022-10-19T05:52:35.700Z,11.13
2022-10-19T05:55:04.681Z,11.16
2022-10-19T05:57:35.043Z,11.19
2022-10-19T06:00:04.226Z,11.21
2022-10-19T06:02:40.736Z,11.24
2022-10-19T06:05:10.234Z,11.27
2022-10-19T06:07:39.238Z,11.31
2022-10-19T06:10:10.448Z,11.33
2022-10-19T06:12:40.781Z,11.37
2022-10-19T06:15:10.795Z,11.41
2022-10-19T06:17:39.398Z,11.42
2022-10-19T06:20:08.677Z,11.44
2022-10-19T06:22:37.646Z,11.50
2022-10-19T06:25:06.781Z,11.53
2022-10-19T06:27:35.783Z,11.53
2022-10-19T06:30:07.704Z,11.58
2022-10-19T06:32:37.697Z,11.60
2022-10-19T06:35:07.348Z,11.63
2022-10-19T06:37:36.367Z,11.60
2022-10-19T06:40:07.216Z,11.62
2022-10-19T06:42:39.510Z,11.63
2022-10-19T06:45:11.712Z,11.63
2022-10-19T06:47:40.701Z,11.65
2022-10-19T06:50:09.774Z,11.72
2022-10-19T06:52:41.315Z,11.74
2022-10-19T06:55:11.172Z,11.76
2022-10-19T06:57:40.145Z,11.77
2022-10-19T07:00:11.923Z,11.77
2022-10-19T07:02:40.894Z,11.79
2022-10-19T07:05:10.540Z,11.80
2022-10-19T07:07:39.587Z,11.83
2022-10-19T07:10:08.706Z,11.85
2022-10-19T07:12:37.187Z,11.85
2022-10-19T07:15:06.745Z,11.90
2022-10-19T07:17:37.500Z,11.93
2022-10-19T07:20:06.940Z,12.00
2022-10-19T07:22:35.671Z,12.06
2022-10-19T07:25:05.017Z,12.13
2022-10-19T07:27:37.538Z,12.16
2022-10-19T07:30:07.206Z,12.19
2022-10-19T07:32:37.601Z,12.27
2022-10-19T07:35:07.210Z,12.37
2022-10-19T07:37:39.028Z,12.40
2022-10-19T07:40:08.561Z,12.39
2022-10-19T07:42:38.565Z,12.34
2022-10-19T07:45:07.946Z,12.34
2022-10-19T07:47:38.172Z,12.35
2022-10-19T07:50:07.604Z,12.37
2022-10-19T07:52:37.053Z,12.44
2022-10-19T07:55:06.562Z,12.49
2022-10-19T07:57:35.157Z,12.52
2022-10-19T08:00:04.290Z,12.53
2022-10-19T08:02:59.770Z,12.52
2022-10-19T08:05:30.576Z,12.56
2022-10-19T08:08:00.875Z,12.54
2022-10-19T08:10:29.975Z,12.63
2022-10-19T08:13:01.621Z,12.70
2022-10-19T08:15:31.585Z,12.76
2022-10-19T08:18:02.336Z,12.69
2022-10-19T08:20:31.427Z,12.62
2022-10-19T08:23:00.545Z,12.53
2022-10-19T08:25:28.973Z,12.45
2022-10-19T08:27:57.878Z,12.40
2022-10-19T08:30:26.731Z,12.32
2022-10-19T08:32:55.870Z,12.26
2022-10-19T08:35:30.345Z,12.22
2022-10-19T08:38:02.898Z,12.20
2022-10-19T08:40:34.113Z,13.48
2022-10-19T08:43:10.658Z,15.32
2022-10-19T08:45:42.999Z,15.72
2022-10-19T08:48:28.835Z,15.13
2022-10-19T08:51:00.792Z,15.34
2022-10-19T08:53:34.801Z,15.71
2022-10-19T08:56:38.868Z,15.46
2022-10-19T08:59:15.361Z,14.85
2022-10-19T09:01:48.523Z,14.33
2022-10-19T09:04:24.091Z,14.07
2022-10-19T09:07:07.874Z,14.57
2022-10-19T09:09:41.310Z,15.60
2022-10-19T09:12:15.005Z,15.50
2022-10-19T09:14:52.780Z,15.34
2022-10-19T09:17:21.955Z,15.52
2022-10-19T09:19:51.414Z,15.41
2022-10-19T09:22:25.743Z,14.98
2022-10-19T09:24:59.845Z,14.62
2022-10-19T09:27:38.344Z,14.34
2022-10-19T09:30:14.970Z,14.18
2022-10-19T09:32:43.761Z,13.98
2022-10-19T09:35:25.842Z,13.75
2022-10-19T09:37:56.310Z,13.47
2022-10-19T09:40:29.732Z,13.36
2022-10-19T09:43:03.054Z,13.34
2022-10-19T09:45:37.098Z,13.29
2022-10-19T09:48:17.013Z,13.21
2022-10-19T09:50:46.815Z,13.15
2022-10-19T09:53:22.736Z,13.04
2022-10-19T09:55:59.784Z,13.02
2022-10-19T09:58:33.141Z,13.01
2022-10-19T10:01:04.093Z,12.94
2022-10-19T10:03:36.518Z,12.98
2022-10-19T10:06:07.844Z,13.23
2022-10-19T10:08:40.020Z,13.28
2022-10-19T10:11:12.676Z,13.24
2022-10-19T10:13:44.209Z,13.19
2022-10-19T10:16:16.734Z,13.06
2022-10-19T10:18:55.697Z,12.90
2022-10-19T10:21:27.662Z,12.79
2022-10-19T10:24:06.678Z,12.62
2022-10-19T10:26:41.241Z,12.46
2022-10-19T10:29:21.775Z,12.32
2022-10-19T10:31:53.843Z,12.28
2022-10-19T10:34:49.555Z,12.30
2022-10-19T10:37:23.576Z,12.20
2022-10-19T10:39:57.872Z,12.16
2022-10-19T10:42:35.196Z,12.15
2022-10-19T10:45:06.224Z,12.25
2022-10-19T10:47:40.711Z,12.34
2022-10-19T10:50:20.660Z,12.44
2022-10-19T10:53:04.686Z,12.52
2022-10-19T10:55:37.691Z,12.62
2022-10-19T10:58:16.667Z,12.69
2022-10-19T11:00:55.006Z,12.91
2022-10-19T11:03:29.187Z,13.26
2022-10-19T11:06:00.531Z,13.48
2022-10-19T11:08:33.535Z,13.52
2022-10-19T11:11:15.436Z,13.47
2022-10-19T11:13:52.898Z,13.47
2022-10-19T11:16:29.834Z,13.63
2022-10-19T11:19:03.813Z,13.74
2022-10-19T11:21:37.957Z,13.85
2022-10-19T11:24:19.994Z,14.87
2022-10-19T11:27:16.287Z,14.79
2022-10-19T11:30:05.699Z,14.44
2022-10-19T11:32:48.418Z,14.10
2022-10-19T11:35:41.297Z,13.78
2022-10-19T11:38:30.107Z,13.41
2022-10-19T11:41:24.632Z,13.12
2022-10-19T11:44:24.182Z,12.83
2022-10-19T11:47:09.650Z,12.62
2022-10-19T11:50:04.537Z,12.51
2022-10-19T11:52:55.150Z,12.49
2022-10-19T11:55:38.554Z,12.42
2022-10-19T11:58:34.465Z,12.37
2022-10-19T12:01:25.744Z,12.24
2022-10-19T12:04:22.875Z,12.14
2022-10-19T12:07:02.974Z,12.16
2022-10-19T12:09:47.603Z,12.22
2022-10-19T12:12:30.874Z,12.26
2022-10-19T12:15:14.367Z,12.24
2022-10-19T12:17:48.751Z,12.26
2022-10-19T12:20:25.595Z,12.58
2022-10-19T12:22:54.870Z,13.51
2022-10-19T12:25:24.723Z,14.30
2022-10-19T12:28:01.314Z,14.23
2022-10-19T12:30:30.558Z,13.81
2022-10-19T12:33:22.518Z,13.36
2022-10-19T12:36:08.294Z,13.07
2022-10-19T12:38:50.735Z,13.07
2022-10-19T12:41:27.843Z,13.14
2022-10-19T12:44:07.652Z,13.37
2022-10-19T12:46:42.602Z,13.21
2022-10-19T12:49:39.443Z,13.37
2022-10-19T12:52:09.350Z,14.11
2022-10-19T12:54:43.676Z,14.03
2022-10-19T12:57:29.386Z,15.30
2022-10-19T13:00:08.308Z,18.00
2022-10-19T13:02:41.506Z,18.30
2022-10-19T13:05:22.629Z,17.60
2022-10-19T13:07:53.392Z,17.09
2022-10-19T13:10:29.732Z,18.75
2022-10-19T13:12:59.614Z,19.86
2022-10-19T13:16:02.744Z,18.89
2022-10-19T13:19:09.725Z,17.10
2022-10-19T13:21:49.814Z,15.70
2022-10-19T13:24:37.831Z,14.75
2022-10-19T13:27:37.369Z,14.08
2022-10-19T13:30:27.737Z,13.70
2022-10-19T13:32:56.855Z,13.38
2022-10-19T13:35:36.876Z,13.18
2022-10-19T13:41:21.768Z,12.92
2022-10-19T13:44:04.764Z,12.87
2022-10-19T13:46:54.294Z,12.81
2022-10-19T13:49:52.411Z,12.71
2022-10-19T13:52:51.770Z,12.58
2022-10-19T13:55:47.578Z,12.54
2022-10-19T13:58:38.668Z,12.52
2022-10-19T14:01:22.408Z,12.48
2022-10-19T14:04:05.627Z,12.37
2022-10-19T14:06:42.738Z,12.32
2022-10-19T14:09:50.147Z,12.26
2022-10-19T14:12:25.552Z,12.26
2022-10-19T14:14:54.756Z,12.21
2022-10-19T14:17:30.343Z,12.15
2022-10-19T14:20:00.639Z,12.13
2022-10-19T14:22:31.364Z,12.11
2022-10-19T14:25:06.620Z,12.08
2022-10-19T14:27:37.854Z,12.01
2022-10-19T14:30:08.361Z,11.92
2022-10-19T14:35:21.746Z,11.74
2022-10-19T14:37:52.526Z,11.65
2022-10-19T14:40:30.404Z,11.59
2022-10-19T14:43:22.766Z,11.53
2022-10-19T14:46:12.754Z,11.42
2022-10-19T14:48:46.460Z,11.36
2022-10-19T14:51:40.211Z,11.29
2022-10-19T14:54:14.241Z,11.23
2022-10-19T14:56:50.412Z,11.18
2022-10-19T14:59:28.163Z,11.09
2022-10-19T15:02:00.687Z,11.06
2022-10-19T15:04:33.831Z,11.04
2022-10-19T15:07:06.482Z,11.01
2022-10-19T15:09:48.000Z,10.96
2022-10-19T15:12:20.703Z,10.91
2022-10-19T15:14:51.316Z,10.91
2022-10-19T15:17:27.153Z,10.93
2022-10-19T15:19:57.154Z,10.92
2022-10-19T15:22:39.355Z,10.89
2022-10-19T15:25:28.813Z,10.82
2022-10-19T15:27:58.620Z,10.72
2022-10-19T15:30:32.772Z,10.64
2022-10-19T15:33:16.572Z,10.56
2022-10-19T15:35:46.193Z,10.50
2022-10-19T15:38:21.839Z,10.41
2022-10-19T15:41:01.540Z,10.35
2022-10-19T15:43:46.787Z,10.26
2022-10-19T15:46:35.962Z,10.17
2022-10-19T15:49:47.279Z,10.02
2022-10-19T15:52:17.348Z,10.06
2022-10-19T15:54:53.395Z,10.02
2022-10-19T15:57:34.383Z,9.98
2022-10-19T16:00:12.751Z,9.93
2022-10-19T16:02:43.138Z,9.94
2022-10-19T16:05:11.874Z,9.94
2022-10-19T16:07:43.762Z,9.95
2022-10-19T16:10:23.240Z,9.92
2022-10-19T16:12:52.389Z,9.89
2022-10-19T16:15:23.633Z,9.85
2022-10-19T16:17:55.431Z,9.84
2022-10-19T16:20:25.063Z,9.82
2022-10-19T16:22:54.500Z,9.76
2022-10-19T16:25:28.925Z,9.72
2022-10-19T16:27:57.644Z,9.65
2022-10-19T16:30:26.418Z,9.57
2022-10-19T16:32:59.196Z,9.52
2022-10-19T16:35:28.189Z,9.46
2022-10-19T16:37:56.664Z,9.41
2022-10-19T16:40:25.596Z,9.37
2022-10-19T16:42:56.943Z,9.30
2022-10-19T16:45:25.576Z,9.25
2022-10-19T16:47:54.175Z,9.20
2022-10-19T16:50:24.985Z,9.14
2022-10-19T16:53:05.196Z,9.09
2022-10-19T16:55:34.328Z,9.02
2022-10-19T16:58:05.974Z,8.99
2022-10-19T17:00:35.180Z,8.93
2022-10-19T17:03:03.721Z,8.87
2022-10-19T17:05:38.395Z,8.85
2022-10-19T17:08:07.387Z,8.84
2022-10-19T17:10:39.426Z,8.81
2022-10-19T17:13:08.273Z,8.76
2022-10-19T17:15:42.911Z,8.71
2022-10-19T17:18:12.946Z,8.63
2022-10-19T17:20:42.973Z,8.53
2022-10-19T17:23:11.547Z,8.46
2022-10-19T17:25:48.321Z,8.36
2022-10-19T17:28:17.186Z,8.32
2022-10-19T17:30:48.038Z,8.28
2022-10-19T17:33:19.642Z,8.26
2022-10-19T17:35:49.831Z,8.22
2022-10-19T17:38:18.564Z,8.20
2022-10-19T17:40:47.295Z,8.20
2022-10-19T17:43:20.069Z,8.16
2022-10-19T17:45:48.552Z,8.13
2022-10-19T17:48:21.127Z,8.10
2022-10-19T17:51:01.278Z,8.08
2022-10-19T17:53:34.650Z,8.03
2022-10-19T17:56:06.957Z,8.01
2022-10-19T17:58:39.736Z,7.99
2022-10-19T18:01:09.614Z,7.95
2022-10-19T18:03:40.431Z,7.88
2022-10-19T18:06:12.568Z,7.86
2022-10-19T18:08:44.691Z,7.77
2022-10-19T18:11:19.598Z,7.73
2022-10-19T18:13:49.465Z,7.69
2022-10-19T18:16:20.524Z,7.61
2022-10-19T18:18:52.502Z,7.56
2022-10-19T18:21:24.659Z,7.48
2022-10-19T18:23:58.906Z,7.40
2022-10-19T18:26:29.761Z,7.33
2022-10-19T18:28:59.702Z,7.25
2022-10-19T18:31:30.218Z,7.18
2022-10-19T18:34:01.203Z,7.11
2022-10-19T18:36:33.960Z,7.08
2022-10-19T18:39:04.375Z,7.07
2022-10-19T18:41:33.620Z,7.05
2022-10-19T18:44:05.214Z,7.03
2022-10-19T18:46:35.329Z,6.99
2022-10-19T18:49:10.444Z,6.94
2022-10-19T18:51:43.816Z,6.96
2022-10-19T18:54:21.841Z,6.93
2022-10-19T18:56:51.995Z,6.89
2022-10-19T18:59:20.663Z,6.87
2022-10-19T19:01:49.504Z,6.87
2022-10-19T19:04:18.279Z,6.79
2022-10-19T19:06:50.227Z,6.76
2022-10-19T19:09:19.401Z,6.70
2022-10-19T19:11:48.678Z,6.67
2022-10-19T19:14:21.199Z,6.61
2022-10-19T19:16:53.401Z,6.56
2022-10-19T19:19:24.570Z,6.54
2022-10-19T19:21:55.252Z,6.55
2022-10-19T19:24:28.436Z,6.55
2022-10-19T19:26:58.209Z,6.53
2022-10-19T19:29:28.188Z,6.49
2022-10-19T19:31:56.682Z,6.47
2022-10-19T19:34:25.583Z,6.47
2022-10-19T19:36:58.288Z,6.46
2022-10-19T19:39:26.886Z,6.46
2022-10-19T19:41:55.429Z,6.47
2022-10-19T19:44:25.196Z,6.46
2022-10-19T19:47:04.565Z,6.43
2022-10-19T19:49:34.426Z,6.37
2022-10-19T19:52:06.803Z,6.40
2022-10-19T19:54:35.720Z,6.35
2022-10-19T19:57:04.602Z,6.35
2022-10-19T19:59:33.407Z,6.33
2022-10-19T20:02:02.272Z,6.32
2022-10-19T20:04:31.309Z,6.31
2022-10-19T20:07:00.732Z,6.29
2022-10-19T20:09:34.153Z,6.26
2022-10-19T20:12:03.318Z,6.25
2022-10-19T20:14:32.645Z,6.26
2022-10-19T20:17:01.707Z,6.27
2022-10-19T20:19:30.915Z,6.24
2022-10-19T20:22:00.472Z,6.22
2022-10-19T20:24:32.001Z,6.19
2022-10-19T20:27:03.565Z,6.13
2022-10-19T20:29:34.251Z,6.16
2022-10-19T20:32:02.904Z,6.15
2022-10-19T20:34:32.018Z,6.15
2022-10-19T20:37:00.608Z,6.16
2022-10-19T20:39:30.612Z,6.14
2022-10-19T20:41:59.139Z,6.06
2022-10-19T20:44:27.633Z,6.04
2022-10-19T20:46:56.500Z,5.98
2022-10-19T20:49:25.774Z,5.93
2022-10-19T20:51:55.565Z,5.87
2022-10-19T20:54:24.779Z,5.85
2022-10-19T20:56:55.068Z,5.77
2022-10-19T20:59:27.928Z,5.76
2022-10-19T21:01:58.710Z,5.71
2022-10-19T21:04:27.475Z,5.68
2022-10-19T21:06:56.080Z,5.64
2022-10-19T21:09:26.240Z,5.62
2022-10-19T21:11:56.450Z,5.57
2022-10-19T21:14:28.637Z,5.54
2022-10-19T21:16:59.619Z,5.49
2022-10-19T21:19:30.130Z,5.43
2022-10-19T21:22:04.812Z,5.40
2022-10-19T21:24:35.503Z,5.35
2022-10-19T21:27:09.292Z,5.30
2022-10-19T21:29:38.567Z,5.27
2022-10-19T21:32:07.445Z,5.22
2022-10-19T21:34:36.455Z,5.18
2022-10-19T21:37:07.791Z,5.14
2022-10-19T21:39:36.936Z,5.13
2022-10-19T21:42:07.143Z,5.09
2022-10-19T21:44:38.869Z,5.02
2022-10-19T21:47:08.233Z,4.97
2022-10-19T21:49:36.541Z,4.92
2022-10-19T21:52:05.738Z,4.88
2022-10-19T21:54:34.882Z,4.80
2022-10-19T21:57:03.969Z,4.78
2022-10-19T21:59:34.250Z,4.74
2022-10-19T22:02:05.243Z,4.69
2022-10-19T22:04:33.871Z,4.64
2022-10-19T22:07:02.530Z,4.58
2022-10-19T22:09:33.904Z,4.55
2022-10-19T22:12:03.928Z,4.51
2022-10-19T22:14:34.094Z,4.45
2022-10-19T22:17:02.515Z,4.42
2022-10-19T22:19:31.183Z,4.38
2022-10-19T22:21:59.908Z,4.34
2022-10-19T22:24:29.096Z,4.29
2022-10-19T22:26:57.801Z,4.26
2022-10-19T22:29:27.237Z,4.22
2022-10-19T22:31:57.107Z,4.18
2022-10-19T22:34:25.858Z,4.17
2022-10-19T22:36:59.911Z,4.14
2022-10-19T22:39:30.289Z,4.15
2022-10-19T22:41:59.439Z,4.16
2022-10-19T22:44:29.068Z,4.18
2022-10-19T22:46:59.572Z,4.18
2022-10-19T22:49:28.450Z,4.19
2022-10-19T22:51:57.023Z,4.20
2022-10-19T22:54:26.154Z,4.20
2022-10-19T22:56:54.863Z,4.19
2022-10-19T22:59:26.334Z,4.19
2022-10-19T23:01:55.081Z,4.19
2022-10-19T23:04:25.849Z,4.18
2022-10-19T23:06:55.042Z,4.16
2022-10-19T23:09:23.905Z,4.11
2022-10-19T23:11:52.538Z,4.06
2022-10-19T23:14:23.343Z,4.03
2022-10-19T23:16:52.153Z,4.00
2022-10-19T23:19:21.261Z,3.97
2022-10-19T23:21:51.282Z,3.94
2022-10-19T23:24:19.921Z,3.92
2022-10-19T23:26:48.272Z,3.87
2022-10-19T23:29:17.231Z,3.84
2022-10-19T23:31:45.675Z,3.81
2022-10-19T23:34:14.194Z,3.76
2022-10-19T23:36:42.714Z,3.76
2022-10-19T23:39:12.723Z,3.73
2022-10-19T23:41:41.442Z,3.70
2022-10-19T23:44:11.717Z,3.68
2022-10-19T23:46:40.939Z,3.66
2022-10-19T23:49:09.651Z,3.65
2022-10-19T23:51:38.362Z,3.64
2022-10-19T23:54:06.770Z,3.61
2022-10-19T23:56:36.850Z,3.58
2022-10-19T23:59:07.917Z,3.54
